createdAt,value
2022-10-17T00:01:06.232Z,100.00
2022-10-17T00:03:35.828Z,100.00
2022-10-17T00:06:21.815Z,100.00
2022-10-17T00:08:49.318Z,100.00
2022-10-17T00:11:20.272Z,100.00
2022-10-17T00:13:50.167Z,100.00
2022-10-17T00:16:37.156Z,100.00
2022-10-17T00:19:07.274Z,100.00
2022-10-17T00:21:35.068Z,100.00
2022-10-17T00:24:02.587Z,100.00
2022-10-17T00:26:30.280Z,100.00
2022-10-17T00:28:58.188Z,100.00
2022-10-17T00:31:25.755Z,100.00
2022-10-17T00:33:53.598Z,100.00
2022-10-17T00:36:23.966Z,100.00
2022-10-17T00:38:54.285Z,100.00
2022-10-17T00:41:25.320Z,100.00
2022-10-17T00:43:52.681Z,100.00
2022-10-17T00:46:21.774Z,100.00
2022-10-17T00:48:52.672Z,100.00
2022-10-17T00:51:27.523Z,100.00
2022-10-17T00:53:56.536Z,100.00
2022-10-17T00:56:24.149Z,100.00
2022-10-17T00:58:52.369Z,100.00
2022-10-17T01:01:20.098Z,100.00
2022-10-17T01:03:47.653Z,100.00
2022-10-17T01:06:15.125Z,100.00
2022-10-17T01:08:42.905Z,100.00
2022-10-17T01:11:29.144Z,100.00
2022-10-17T01:14:25.483Z,100.00
2022-10-17T01:17:11.966Z,100.00
2022-10-17T01:19:50.701Z,100.00
2022-10-17T01:22:30.227Z,100.00
2022-10-17T01:25:12.829Z,100.00
2022-10-17T01:27:49.537Z,100.00
2022-10-17T01:30:44.822Z,100.00
2022-10-17T01:33:32.790Z,100.00
2022-10-17T01:36:13.090Z,100.00
2022-10-17T01:38:46.093Z,100.00
2022-10-17T01:41:40.677Z,100.00
2022-10-17T01:44:28.263Z,100.00
2022-10-17T01:47:04.601Z,100.00
2022-10-17T01:49:35.141Z,100.00
2022-10-17T01:52:14.912Z,100.00
2022-10-17T01:54:44.241Z,100.00
2022-10-17T01:57:20.514Z,100.00
2022-10-17T01:59:51.875Z,100.00
2022-10-17T02:02:21.291Z,100.00
2022-10-17T02:04:51.539Z,100.00
2022-10-17T02:07:19.247Z,100.00
2022-10-17T02:09:47.284Z,100.00
2022-10-17T02:12:56.381Z,100.00
2022-10-17T02:15:44.954Z,100.00
2022-10-17T02:18:41.787Z,100.00
2022-10-17T02:21:14.580Z,98.49
2022-10-17T02:23:54.051Z,99.02
2022-10-17T02:26:47.584Z,98.85
2022-10-17T02:29:25.775Z,99.25
2022-10-17T02:32:18.068Z,99.53
2022-10-17T02:34:50.800Z,99.49
2022-10-17T02:37:25.519Z,100.00
2022-10-17T02:39:56.238Z,99.85
2022-10-17T02:42:26.368Z,99.74
2022-10-17T02:44:59.148Z,100.00
2022-10-17T02:47:32.065Z,100.00
2022-10-17T02:50:00.250Z,100.00
2022-10-17T02:52:36.637Z,99.93
2022-10-17T02:55:18.578Z,100.00
2022-10-17T02:57:54.576Z,100.00
2022-10-17T03:00:23.842Z,99.99
2022-10-17T03:02:53.107Z,99.98
2022-10-17T03:05:23.441Z,100.00
2022-10-17T03:07:51.774Z,99.78
2022-10-17T03:10:19.724Z,100.00
2022-10-17T03:12:47.199Z,99.62
2022-10-17T03:15:15.135Z,100.00
2022-10-17T03:17:43.057Z,99.48
2022-10-17T03:20:11.193Z,99.53
2022-10-17T03:22:38.789Z,99.69
2022-10-17T03:25:06.692Z,98.82
2022-10-17T03:27:34.432Z,99.05
2022-10-17T03:30:02.323Z,99.27
2022-10-17T03:32:34.200Z,98.90
2022-10-17T03:35:02.732Z,97.76
2022-10-17T03:37:30.905Z,98.03
2022-10-17T03:39:58.989Z,97.53
2022-10-17T03:42:26.547Z,96.77
2022-10-17T03:44:54.050Z,96.63
2022-10-17T03:47:21.584Z,95.63
2022-10-17T03:49:49.305Z,94.95
2022-10-17T03:52:16.756Z,94.78
2022-10-17T03:54:44.294Z,94.62
2022-10-17T03:57:12.069Z,93.78
2022-10-17T03:59:39.617Z,93.65
2022-10-17T04:02:07.229Z,92.78
2022-10-17T04:04:34.661Z,92.45
2022-10-17T04:07:02.355Z,92.28
2022-10-17T04:09:30.172Z,91.77
2022-10-17T04:11:57.836Z,90.56
2022-10-17T04:14:25.417Z,89.90
2022-10-17T04:16:53.644Z,89.58
2022-10-17T04:19:21.265Z,89.32
2022-10-17T04:21:48.813Z,88.65
2022-10-17T04:24:16.515Z,88.92
2022-10-17T04:26:44.181Z,89.08
2022-10-17T04:29:12.046Z,88.51
2022-10-17T04:31:39.569Z,87.71
2022-10-17T04:34:06.997Z,87.32
2022-10-17T04:36:34.527Z,87.30
2022-10-17T04:39:03.661Z,86.92
2022-10-17T04:41:31.706Z,86.41
2022-10-17T04:43:59.478Z,86.71
2022-10-17T04:46:27.130Z,85.30
2022-10-17T04:48:54.951Z,85.77
2022-10-17T04:51:24.618Z,85.92
2022-10-17T04:53:54.904Z,86.04
2022-10-17T04:56:24.711Z,85.74
2022-10-17T04:58:52.681Z,85.77
2022-10-17T05:01:23.133Z,86.03
2022-10-17T05:03:50.960Z,86.35
2022-10-17T05:06:24.615Z,86.96
2022-10-17T05:08:52.293Z,87.26
2022-10-17T05:11:27.570Z,87.39
2022-10-17T05:13:57.990Z,86.74
2022-10-17T05:16:26.455Z,86.59
2022-10-17T05:18:56.612Z,85.92
2022-10-17T05:21:26.534Z,86.10
2022-10-17T05:23:54.138Z,86.49
2022-10-17T05:26:22.409Z,86.51
2022-10-17T05:28:52.427Z,86.61
2022-10-17T05:31:20.374Z,86.68
2022-10-17T05:33:48.098Z,86.50
2022-10-17T05:36:15.828Z,87.12
2022-10-17T05:38:43.439Z,87.05
2022-10-17T05:41:11.235Z,87.98
2022-10-17T05:43:38.956Z,88.40
2022-10-17T05:46:07.093Z,89.08
2022-10-17T05:48:34.940Z,89.02
2022-10-17T05:51:08.867Z,89.76
2022-10-17T05:53:40.741Z,90.32
2022-10-17T05:56:10.370Z,90.41
2022-10-17T05:59:00.707Z,90.40
2022-10-17T06:01:29.109Z,90.22
2022-10-17T06:03:57.045Z,89.28
2022-10-17T06:06:24.591Z,88.80
2022-10-17T06:08:52.385Z,88.30
2022-10-17T06:11:20.117Z,86.56
2022-10-17T06:13:47.530Z,86.54
2022-10-17T06:16:15.050Z,86.11
2022-10-17T06:18:42.765Z,85.76
2022-10-17T06:21:12.215Z,84.88
2022-10-17T06:23:39.843Z,84.99
2022-10-17T06:26:07.790Z,84.92
2022-10-17T06:28:36.097Z,84.65
2022-10-17T06:31:08.890Z,84.42
2022-10-17T06:33:37.242Z,83.94
2022-10-17T06:36:06.894Z,83.69
2022-10-17T06:38:35.236Z,83.98
2022-10-17T06:41:22.936Z,83.99
2022-10-17T06:43:50.640Z,84.01
2022-10-17T06:46:19.657Z,83.68
2022-10-17T06:48:47.099Z,83.11
2022-10-17T06:51:14.649Z,83.42
2022-10-17T06:53:42.492Z,83.30
2022-10-17T06:56:10.660Z,83.34
2022-10-17T06:58:39.745Z,82.90
2022-10-17T07:01:11.176Z,82.58
2022-10-17T07:03:40.221Z,81.72
2022-10-17T07:06:07.904Z,81.73
2022-10-17T07:08:35.363Z,81.54
2022-10-17T07:11:11.123Z,81.53
2022-10-17T07:13:39.675Z,81.82
2022-10-17T07:16:08.058Z,81.01
2022-10-17T07:18:35.736Z,81.01
2022-10-17T07:21:04.115Z,80.69
2022-10-17T07:23:33.752Z,79.46
2022-10-17T07:26:03.319Z,79.70
2022-10-17T07:28:30.856Z,79.97
2022-10-17T07:31:07.175Z,79.04
2022-10-17T07:33:35.179Z,78.69
2022-10-17T07:36:05.193Z,78.15
2022-10-17T07:38:32.897Z,78.08
2022-10-17T07:41:02.792Z,76.90
2022-10-17T07:43:30.879Z,76.58
2022-10-17T07:45:58.760Z,77.27
2022-10-17T07:48:26.404Z,77.04
2022-10-17T07:50:54.069Z,76.37
2022-10-17T07:53:21.974Z,76.19
2022-10-17T07:55:49.838Z,76.44
2022-10-17T07:58:17.777Z,76.32
2022-10-17T08:00:48.573Z,76.15
2022-10-17T08:03:16.591Z,75.93
2022-10-17T08:05:44.098Z,75.61
2022-10-17T08:08:11.922Z,75.33
2022-10-17T08:10:39.750Z,75.56
2022-10-17T08:13:07.540Z,74.52
2022-10-17T08:15:37.747Z,74.12
2022-10-17T08:18:05.524Z,74.42
2022-10-17T08:20:33.527Z,74.10
2022-10-17T08:23:01.106Z,74.10
2022-10-17T08:25:28.630Z,73.79
2022-10-17T08:27:56.557Z,74.13
2022-10-17T08:30:24.437Z,74.08
2022-10-17T08:32:52.193Z,74.82
2022-10-17T08:35:21.886Z,74.18
2022-10-17T08:37:49.801Z,74.14
2022-10-17T08:40:22.585Z,74.50
2022-10-17T08:42:56.526Z,75.19
2022-10-17T08:45:36.562Z,75.41
2022-10-17T08:48:13.583Z,76.10
2022-10-17T08:50:46.580Z,75.79
2022-10-17T08:53:32.013Z,75.19
2022-10-17T08:56:07.215Z,75.11
2022-10-17T08:58:38.047Z,73.92
2022-10-17T09:01:28.045Z,73.70
2022-10-17T09:04:01.665Z,72.80
2022-10-17T09:06:37.394Z,72.24
2022-10-17T09:09:17.286Z,72.08
2022-10-17T09:11:54.074Z,71.69
2022-10-17T09:14:58.808Z,71.35
2022-10-17T09:17:38.881Z,71.72
2022-10-17T09:20:18.789Z,71.59
2022-10-17T09:22:59.846Z,72.03
2022-10-17T09:25:28.154Z,73.01
2022-10-17T09:28:10.745Z,73.43
2022-10-17T09:30:55.890Z,73.94
2022-10-17T09:33:35.137Z,73.76
2022-10-17T09:36:22.914Z,73.77
2022-10-17T09:38:56.580Z,73.58
2022-10-17T09:41:44.857Z,73.39
2022-10-17T09:44:16.028Z,73.65
2022-10-17T09:46:55.254Z,74.01
2022-10-17T09:49:37.986Z,73.98
2022-10-17T09:52:30.673Z,73.59
2022-10-17T09:55:04.569Z,73.46
2022-10-17T09:57:56.433Z,73.28
2022-10-17T10:00:31.778Z,73.00
2022-10-17T10:03:28.514Z,73.04
2022-10-17T10:06:03.033Z,73.36
2022-10-17T10:08:36.119Z,73.79
2022-10-17T10:11:13.458Z,74.21
2022-10-17T10:13:43.152Z,74.86
2022-10-17T10:16:30.194Z,75.16
2022-10-17T10:18:58.283Z,75.27
2022-10-17T10:21:27.593Z,75.14
2022-10-17T10:24:04.274Z,75.18
2022-10-17T10:26:53.508Z,75.62
2022-10-17T10:29:34.125Z,75.64
2022-10-17T10:32:07.390Z,74.60
2022-10-17T10:34:36.098Z,74.03
2022-10-17T10:37:05.504Z,73.46
2022-10-17T10:39:38.041Z,73.50
2022-10-17T10:42:17.203Z,73.69
2022-10-17T10:44:44.954Z,74.33
2022-10-17T10:47:20.649Z,75.17
2022-10-17T10:49:52.780Z,75.44
2022-10-17T10:52:30.452Z,75.11
2022-10-17T10:55:17.555Z,75.57
2022-10-17T10:57:48.012Z,75.28
2022-10-17T11:00:24.518Z,75.30
2022-10-17T11:03:01.839Z,75.12
2022-10-17T11:06:17.135Z,75.04
2022-10-17T11:09:00.474Z,74.69
2022-10-17T11:11:39.924Z,74.89
2022-10-17T11:14:16.711Z,75.22
2022-10-17T11:17:29.030Z,75.55
2022-10-17T11:19:59.087Z,76.06
2022-10-17T11:22:37.334Z,76.36
2022-10-17T11:25:17.388Z,76.58
2022-10-17T11:27:44.949Z,77.00
2022-10-17T11:30:16.741Z,77.03
2022-10-17T11:32:54.156Z,76.50
2022-10-17T11:35:25.251Z,75.89
2022-10-17T11:38:10.723Z,76.20
2022-10-17T11:40:43.566Z,75.73
2022-10-17T11:43:11.068Z,75.69
2022-10-17T11:45:47.083Z,75.72
2022-10-17T11:48:25.533Z,75.75
2022-10-17T11:53:55.751Z,76.33
2022-10-17T11:56:42.754Z,76.34
2022-10-17T11:59:10.438Z,76.01
2022-10-17T12:01:47.123Z,75.87
2022-10-17T12:04:20.424Z,75.98
2022-10-17T12:07:13.724Z,76.59
2022-10-17T12:10:13.367Z,76.12
2022-10-17T12:12:41.127Z,76.25
2022-10-17T12:15:11.599Z,76.17
2022-10-17T12:17:45.400Z,75.41
2022-10-17T12:20:25.738Z,75.05
2022-10-17T12:23:03.049Z,75.58
2022-10-17T12:28:21.074Z,75.26
2022-10-17T12:31:05.853Z,75.35
2022-10-17T12:33:48.466Z,75.32
2022-10-17T12:36:18.730Z,75.14
2022-10-17T12:38:50.058Z,75.27
2022-10-17T12:41:40.642Z,75.46
2022-10-17T12:44:14.097Z,76.26
2022-10-17T12:47:01.857Z,76.36
2022-10-17T12:49:47.488Z,76.23
2022-10-17T12:52:18.097Z,76.40
2022-10-17T12:55:12.969Z,76.75
2022-10-17T12:57:48.532Z,76.94
2022-10-17T13:00:33.586Z,76.97
2022-10-17T13:03:19.389Z,77.01
2022-10-17T13:05:56.860Z,77.06
2022-10-17T13:08:29.478Z,77.05
2022-10-17T13:10:57.833Z,76.71
2022-10-17T13:13:45.272Z,76.53
2022-10-17T13:16:39.061Z,76.52
2022-10-17T13:19:15.313Z,76.72
2022-10-17T13:21:59.933Z,77.00
2022-10-17T13:24:39.193Z,77.69
2022-10-17T13:27:27.713Z,78.00
2022-10-17T13:29:58.855Z,78.21
2022-10-17T13:32:35.074Z,78.63
2022-10-17T13:35:13.232Z,78.91
2022-10-17T13:37:50.230Z,79.00
2022-10-17T13:40:49.598Z,78.87
2022-10-17T13:43:19.341Z,79.04
2022-10-17T13:45:50.525Z,78.20
2022-10-17T13:48:23.780Z,77.94
2022-10-17T13:50:56.390Z,78.07
2022-10-17T13:53:31.036Z,77.73
2022-10-17T13:56:16.144Z,77.01
2022-10-17T13:58:49.362Z,77.16
2022-10-17T14:01:19.095Z,77.47
2022-10-17T14:03:50.182Z,77.73
2022-10-17T14:06:26.986Z,78.03
2022-10-17T14:09:07.425Z,78.21
2022-10-17T14:11:44.210Z,78.65
2022-10-17T14:14:24.819Z,79.00
2022-10-17T14:16:52.950Z,79.19
2022-10-17T14:19:30.846Z,80.19
2022-10-17T14:22:23.581Z,79.99
2022-10-17T14:24:53.401Z,80.19
2022-10-17T14:27:26.989Z,80.37
2022-10-17T14:30:00.969Z,80.58
2022-10-17T14:32:34.819Z,80.83
2022-10-17T14:35:30.201Z,81.00
2022-10-17T14:37:57.517Z,81.25
2022-10-17T14:40:27.363Z,81.71
2022-10-17T14:42:57.941Z,82.19
2022-10-17T14:45:35.830Z,82.71
2022-10-17T14:48:10.499Z,83.14
2022-10-17T14:50:38.643Z,83.41
2022-10-17T14:53:12.209Z,83.43
2022-10-17T14:55:54.199Z,83.75
2022-10-17T14:58:27.973Z,84.26
2022-10-17T15:02:13.522Z,84.67
2022-10-17T15:04:20.532Z,84.65
2022-10-17T15:06:57.247Z,84.53
2022-10-17T15:09:28.597Z,85.20
2022-10-17T15:12:01.228Z,85.23
2022-10-17T15:14:29.070Z,84.74
2022-10-17T15:16:56.562Z,84.34
2022-10-17T15:19:24.126Z,84.75
2022-10-17T15:21:52.038Z,84.93
2022-10-17T15:24:19.622Z,84.74
2022-10-17T15:26:47.136Z,84.48
2022-10-17T15:29:16.150Z,85.09
2022-10-17T15:31:43.864Z,84.90
2022-10-17T15:34:11.361Z,85.64
2022-10-17T15:36:48.349Z,86.16
2022-10-17T15:39:16.094Z,85.91
2022-10-17T15:41:44.199Z,86.24
2022-10-17T15:44:11.966Z,86.18
2022-10-17T15:46:41.748Z,87.07
2022-10-17T15:49:15.010Z,86.90
2022-10-17T15:51:42.832Z,87.13
2022-10-17T15:54:10.350Z,87.14
2022-10-17T15:56:41.319Z,86.82
2022-10-17T15:59:15.775Z,87.89
2022-10-17T16:01:43.970Z,87.83
2022-10-17T16:04:15.177Z,87.85
2022-10-17T16:06:43.584Z,88.05
2022-10-17T16:09:11.314Z,88.50
2022-10-17T16:11:43.465Z,88.81
2022-10-17T16:14:16.519Z,88.61
2022-10-17T16:16:44.763Z,89.15
2022-10-17T16:19:12.673Z,89.09
2022-10-17T16:21:41.761Z,89.58
2022-10-17T16:24:12.721Z,89.62
2022-10-17T16:26:41.139Z,90.31
2022-10-17T16:29:10.185Z,90.31
2022-10-17T16:31:40.488Z,89.95
2022-10-17T16:34:08.977Z,90.59
2022-10-17T16:36:36.542Z,90.27
2022-10-17T16:39:04.518Z,90.38
2022-10-17T16:41:37.320Z,90.58
2022-10-17T16:44:07.753Z,90.73
2022-10-17T16:46:37.457Z,90.66
2022-10-17T16:49:05.765Z,90.50
2022-10-17T16:51:35.845Z,90.72
2022-10-17T16:54:04.645Z,90.43
2022-10-17T16:56:33.041Z,90.70
2022-10-17T16:59:01.453Z,90.98
2022-10-17T17:01:29.475Z,91.10
2022-10-17T17:03:57.635Z,90.65
2022-10-17T17:06:28.496Z,91.10
2022-10-17T17:08:57.164Z,90.72
2022-10-17T17:11:26.905Z,90.95
2022-10-17T17:13:56.816Z,91.29
2022-10-17T17:16:26.267Z,91.26
2022-10-17T17:18:56.366Z,91.36
2022-10-17T17:21:24.321Z,91.72
2022-10-17T17:23:52.039Z,91.81
2022-10-17T17:26:22.023Z,92.07
2022-10-17T17:28:50.762Z,92.92
2022-10-17T17:31:24.347Z,92.43
2022-10-17T17:33:53.417Z,92.74
2022-10-17T17:36:41.354Z,92.68
2022-10-17T17:39:12.473Z,93.37
2022-10-17T17:41:41.574Z,92.98
2022-10-17T17:44:15.753Z,93.47
2022-10-17T17:46:45.188Z,93.84
2022-10-17T17:49:12.945Z,93.66
2022-10-17T17:51:41.898Z,94.39
2022-10-17T17:54:11.666Z,94.19
2022-10-17T17:56:39.563Z,94.58
2022-10-17T17:59:07.669Z,94.80
2022-10-17T18:01:39.272Z,95.07
2022-10-17T18:04:09.064Z,94.78
2022-10-17T18:06:38.511Z,95.10
2022-10-17T18:09:08.084Z,94.69
2022-10-17T18:11:37.531Z,95.08
2022-10-17T18:14:07.840Z,95.02
2022-10-17T18:16:37.192Z,95.44
2022-10-17T18:19:07.280Z,95.34
2022-10-17T18:21:36.432Z,95.23
2022-10-17T18:24:05.171Z,95.28
2022-10-17T18:26:33.459Z,94.60
2022-10-17T18:29:01.815Z,95.34
2022-10-17T18:31:32.308Z,95.13
2022-10-17T18:34:02.971Z,95.44
2022-10-17T18:36:31.959Z,95.27
2022-10-17T18:39:00.298Z,95.93
2022-10-17T18:41:28.753Z,95.91
2022-10-17T18:43:57.122Z,95.71
2022-10-17T18:46:27.807Z,96.14
2022-10-17T18:48:56.187Z,96.55
2022-10-17T18:51:25.616Z,97.08
2022-10-17T18:53:55.636Z,96.43
2022-10-17T18:56:23.682Z,96.69
2022-10-17T18:58:51.941Z,96.10
2022-10-17T19:01:22.838Z,95.71
2022-10-17T19:03:52.351Z,95.77
2022-10-17T19:06:22.806Z,95.91
2022-10-17T19:08:50.397Z,95.54
2022-10-17T19:11:21.510Z,96.28
2022-10-17T19:13:50.213Z,95.96
2022-10-17T19:16:21.387Z,95.98
2022-10-17T19:18:52.722Z,95.96
2022-10-17T19:21:22.049Z,95.96
2022-10-17T19:23:52.434Z,95.99
2022-10-17T19:26:20.884Z,95.72
2022-10-17T19:28:52.238Z,95.99
2022-10-17T19:31:26.531Z,95.60
2022-10-17T19:33:56.197Z,95.46
2022-10-17T19:36:29.067Z,96.64
2022-10-17T19:39:00.976Z,96.35
2022-10-17T19:41:28.941Z,96.49
2022-10-17T19:43:57.357Z,96.26
2022-10-17T19:46:27.251Z,96.91
2022-10-17T19:48:55.272Z,96.81
2022-10-17T19:51:25.100Z,96.87
2022-10-17T19:53:54.833Z,97.09
2022-10-17T19:56:25.084Z,97.85
2022-10-17T19:58:54.405Z,97.70
2022-10-17T20:01:27.996Z,98.15
2022-10-17T20:03:56.555Z,97.90
2022-10-17T20:06:24.854Z,98.45
2022-10-17T20:08:52.845Z,98.33
2022-10-17T20:11:23.372Z,98.28
2022-10-17T20:13:51.580Z,98.41
2022-10-17T20:16:22.015Z,99.05
2022-10-17T20:18:51.666Z,98.62
2022-10-17T20:21:22.023Z,99.13
2022-10-17T20:23:50.633Z,98.99
2022-10-17T20:26:38.607Z,99.18
2022-10-17T20:29:12.128Z,99.38
2022-10-17T20:31:41.312Z,99.21
2022-10-17T20:34:11.922Z,99.67
2022-10-17T20:36:39.853Z,99.95
2022-10-17T20:39:09.871Z,100.00
2022-10-17T20:41:37.555Z,100.00
2022-10-17T20:44:06.922Z,100.00
2022-10-17T20:46:37.808Z,100.00
2022-10-17T20:49:14.003Z,100.00
2022-10-17T20:51:41.882Z,100.00
2022-10-17T20:54:09.775Z,100.00
2022-10-17T20:56:38.632Z,100.00
2022-10-17T20:59:08.454Z,100.00
2022-10-17T21:01:36.308Z,100.00
2022-10-17T21:06:53.576Z,100.00
2022-10-17T21:09:22.194Z,100.00
2022-10-17T21:11:55.727Z,100.00
2022-10-17T21:14:33.804Z,100.00
2022-10-17T21:17:04.954Z,100.00
2022-10-17T21:19:33.601Z,100.00
2022-10-17T21:22:01.747Z,100.00
2022-10-17T21:24:29.551Z,100.00
2022-10-17T21:26:57.643Z,100.00
2022-10-17T21:29:25.262Z,100.00
2022-10-17T21:31:52.999Z,100.00
2022-10-17T21:34:23.903Z,100.00
2022-10-17T21:36:51.843Z,100.00
2022-10-17T21:39:19.844Z,100.00
2022-10-17T21:41:47.532Z,100.00
2022-10-17T21:44:17.628Z,100.00
2022-10-17T21:46:46.097Z,100.00
2022-10-17T21:49:17.066Z,100.00
2022-10-17T21:51:45.419Z,100.00
2022-10-17T21:54:13.644Z,100.00
2022-10-17T21:56:41.836Z,100.00
2022-10-17T21:59:09.790Z,100.00
2022-10-17T22:01:43.437Z,100.00
2022-10-17T22:04:14.366Z,100.00
2022-10-17T22:06:43.882Z,100.00
2022-10-17T22:09:22.809Z,100.00
2022-10-17T22:11:53.398Z,100.00
2022-10-17T22:14:22.764Z,100.00
2022-10-17T22:16:50.733Z,100.00
2022-10-17T22:19:22.481Z,100.00
2022-10-17T22:21:50.745Z,100.00
2022-10-17T22:26:48.927Z,100.00
2022-10-17T22:29:17.048Z,100.00
2022-10-17T22:31:44.886Z,100.00
2022-10-17T22:34:14.827Z,100.00
2022-10-17T22:36:42.795Z,100.00
2022-10-17T22:39:11.132Z,100.00
2022-10-17T22:41:38.610Z,100.00
2022-10-17T22:44:06.359Z,100.00
2022-10-17T22:46:34.167Z,100.00
2022-10-17T22:49:01.918Z,100.00
2022-10-17T22:51:29.764Z,100.00
2022-10-17T22:53:57.219Z,100.00
2022-10-17T22:56:24.938Z,100.00
2022-10-17T22:58:53.419Z,100.00
2022-10-17T23:01:24.942Z,100.00
2022-10-17T23:03:52.905Z,100.00
2022-10-17T23:06:21.163Z,100.00
2022-10-17T23:08:49.373Z,100.00
2022-10-17T23:11:17.288Z,100.00
2022-10-17T23:13:44.910Z,100.00
2022-10-17T23:16:12.425Z,100.00
2022-10-17T23:18:40.101Z,100.00
2022-10-17T23:21:08.373Z,100.00
2022-10-17T23:23:36.850Z,100.00
2022-10-17T23:26:14.556Z,100.00
2022-10-17T23:28:43.530Z,100.00
2022-10-17T23:31:18.587Z,100.00
2022-10-17T23:33:48.027Z,100.00
2022-10-17T23:36:17.666Z,100.00
2022-10-17T23:38:46.881Z,100.00
2022-10-17T23:41:14.549Z,100.00
2022-10-17T23:43:42.168Z,100.00
2022-10-17T23:46:10.145Z,100.00
2022-10-17T23:48:38.626Z,100.00
2022-10-17T23:51:07.985Z,100.00
2022-10-17T23:53:36.150Z,100.00
2022-10-17T23:56:05.227Z,100.00
2022-10-17T23:58:32.871Z,100.00
